createdAt,value
2018-12-12T00:01:44.064Z,2.50
2018-12-12T00:04:11.184Z,2.50
2018-12-12T00:06:45.206Z,2.50
2018-12-12T00:09:12.187Z,2.50
2018-12-12T00:11:39.104Z,2.50
2018-12-12T00:14:06.145Z,2.50
2018-12-12T00:16:33.066Z,2.50
2018-12-12T00:19:00.065Z,2.50
2018-12-12T00:21:27.064Z,2.40
2018-12-12T00:23:54.105Z,2.50
2018-12-12T00:26:21.084Z,2.40
2018-12-12T00:28:48.105Z,2.40
2018-12-12T00:31:15.085Z,2.40
2018-12-12T00:33:42.426Z,2.40
2018-12-12T00:36:09.385Z,2.40
2018-12-12T00:38:36.485Z,2.50
2018-12-12T00:41:03.485Z,2.40
2018-12-12T00:43:30.486Z,2.40
2018-12-12T00:45:57.424Z,2.50
2018-12-12T00:48:25.205Z,2.50
2018-12-12T00:50:52.165Z,2.50
2018-12-12T00:53:19.184Z,2.50
2018-12-12T00:55:46.410Z,2.50
2018-12-12T00:58:13.865Z,2.50
2018-12-12T01:00:40.844Z,2.50
2018-12-12T01:03:07.844Z,2.50
2018-12-12T01:05:34.864Z,2.50
2018-12-12T01:08:01.864Z,2.50
2018-12-12T01:10:28.829Z,2.50
2018-12-12T01:12:55.925Z,2.40
2018-12-12T01:15:22.925Z,2.50
2018-12-12T01:17:49.946Z,2.50
2018-12-12T01:20:16.946Z,2.40
2018-12-12T01:22:43.945Z,2.40
2018-12-12T01:25:11.305Z,2.40
2018-12-12T01:27:38.245Z,2.40
2018-12-12T01:30:05.644Z,2.40
2018-12-12T01:32:32.585Z,2.40
2018-12-12T01:34:59.565Z,2.40
2018-12-12T01:37:26.726Z,2.40
2018-12-12T01:39:53.865Z,2.40
2018-12-12T01:42:20.825Z,2.40
2018-12-12T01:44:47.805Z,2.30
2018-12-12T01:47:15.665Z,2.30
2018-12-12T01:49:42.685Z,2.30
2018-12-12T01:52:09.706Z,2.30
2018-12-12T01:54:43.685Z,2.30
2018-12-12T01:57:10.685Z,2.30
2018-12-12T01:59:37.665Z,2.30
2018-12-12T02:02:04.706Z,2.40
2018-12-12T02:04:31.744Z,2.30
2018-12-12T02:06:58.745Z,2.30
2018-12-12T02:09:25.756Z,2.30
2018-12-12T02:11:52.805Z,2.30
2018-12-12T02:14:19.794Z,2.30
2018-12-12T02:16:46.765Z,2.30
2018-12-12T02:19:13.886Z,2.30
2018-12-12T02:21:40.865Z,2.30
2018-12-12T02:24:07.945Z,2.30
2018-12-12T02:26:34.945Z,2.20
2018-12-12T02:29:01.906Z,2.20
2018-12-12T02:31:28.826Z,2.20
2018-12-12T02:33:55.805Z,2.20
2018-12-12T02:36:22.830Z,2.20
2018-12-12T02:38:49.907Z,2.20
2018-12-12T02:41:17.389Z,2.20
2018-12-12T02:43:44.528Z,2.20
2018-12-12T02:46:11.566Z,2.20
2018-12-12T02:48:38.555Z,2.20
2018-12-12T02:51:05.548Z,2.20
2018-12-12T02:53:32.507Z,2.20
2018-12-12T02:55:59.566Z,2.20
2018-12-12T02:58:26.544Z,2.20
2018-12-12T03:00:53.525Z,2.20
2018-12-12T03:03:20.487Z,2.20
2018-12-12T03:05:47.526Z,2.30
2018-12-12T03:08:14.546Z,2.30
2018-12-12T03:10:41.545Z,2.30
2018-12-12T03:13:08.505Z,2.30
2018-12-12T03:15:42.445Z,2.30
2018-12-12T03:18:09.704Z,2.30
2018-12-12T03:20:36.687Z,2.30
2018-12-12T03:23:03.633Z,2.30
2018-12-12T03:25:30.665Z,2.30
2018-12-12T03:27:57.646Z,2.30
2018-12-12T03:30:24.627Z,2.30
2018-12-12T03:32:51.627Z,2.30
2018-12-12T03:35:18.631Z,2.30
2018-12-12T03:37:45.585Z,2.30
2018-12-12T03:40:12.745Z,2.30
2018-12-12T03:42:40.192Z,2.30
2018-12-12T03:45:07.705Z,2.20
2018-12-12T03:47:34.905Z,2.20
2018-12-12T03:50:01.945Z,2.20
2018-12-12T03:52:28.946Z,2.20
2018-12-12T03:54:55.905Z,2.20
2018-12-12T03:57:22.906Z,2.20
2018-12-12T03:59:49.946Z,2.20
2018-12-12T04:02:16.966Z,2.20
2018-12-12T04:04:43.966Z,2.20
2018-12-12T04:07:10.925Z,2.20
2018-12-12T04:09:37.945Z,2.20
2018-12-12T04:12:04.817Z,2.20
2018-12-12T04:14:38.929Z,2.20
2018-12-12T04:17:06.664Z,2.20
2018-12-12T04:19:33.648Z,2.20
2018-12-12T04:22:01.345Z,2.20
2018-12-12T04:24:28.624Z,2.20
2018-12-12T04:26:55.605Z,2.20
2018-12-12T04:29:22.586Z,2.20
2018-12-12T04:31:49.504Z,2.20
2018-12-12T04:34:17.028Z,2.20
2018-12-12T04:36:43.943Z,2.20
2018-12-12T04:39:10.924Z,2.20
2018-12-12T04:41:37.944Z,2.20
2018-12-12T04:44:04.944Z,2.20
2018-12-12T04:46:32.730Z,2.20
2018-12-12T04:48:59.744Z,2.20
2018-12-12T04:51:26.924Z,2.20
2018-12-12T04:53:53.945Z,2.20
2018-12-12T04:56:20.864Z,2.10
2018-12-12T04:58:47.918Z,2.20
2018-12-12T05:01:15.345Z,2.10
2018-12-12T05:03:42.384Z,2.20
2018-12-12T05:06:09.323Z,2.10
2018-12-12T05:08:36.284Z,2.10
2018-12-12T05:11:03.264Z,2.20
2018-12-12T05:13:30.285Z,2.10
2018-12-12T05:15:57.263Z,2.20
2018-12-12T05:18:24.284Z,2.10
2018-12-12T05:20:51.364Z,2.10
2018-12-12T05:23:18.406Z,2.10
2018-12-12T05:25:45.424Z,2.10
2018-12-12T05:28:12.443Z,2.10
2018-12-12T05:30:39.584Z,2.20
2018-12-12T05:33:06.724Z,2.20
2018-12-12T05:35:40.624Z,2.20
2018-12-12T05:38:14.645Z,2.20
2018-12-12T05:40:42.064Z,2.30
2018-12-12T05:43:09.123Z,2.10
2018-12-12T05:45:36.784Z,2.10
2018-12-12T05:48:03.963Z,2.10
2018-12-12T05:50:30.965Z,2.10
2018-12-12T05:52:58.004Z,2.00
2018-12-12T05:55:24.943Z,2.10
2018-12-12T05:57:51.964Z,2.00
2018-12-12T06:00:18.944Z,2.00
2018-12-12T06:02:45.984Z,2.00
2018-12-12T06:05:12.924Z,2.00
2018-12-12T06:07:39.963Z,2.00
2018-12-12T06:10:07.745Z,2.00
2018-12-12T06:12:34.746Z,2.00
2018-12-12T06:15:06.403Z,2.00
2018-12-12T06:17:33.424Z,2.00
2018-12-12T06:20:00.785Z,2.00
2018-12-12T06:22:29.006Z,2.00
2018-12-12T06:24:56.025Z,2.00
2018-12-12T06:27:23.024Z,2.00
2018-12-12T06:29:50.145Z,2.00
2018-12-12T06:32:17.125Z,2.00
2018-12-12T06:34:44.145Z,2.00
2018-12-12T06:37:11.105Z,2.00
2018-12-12T06:39:38.105Z,2.00
2018-12-12T06:42:05.164Z,2.10
2018-12-12T06:44:32.145Z,2.10
2018-12-12T06:46:59.284Z,2.10
2018-12-12T06:49:33.244Z,2.10
2018-12-12T06:52:00.289Z,2.10
2018-12-12T06:54:27.265Z,2.10
2018-12-12T06:56:54.264Z,2.10
2018-12-12T06:59:21.304Z,2.00
2018-12-12T07:01:48.484Z,2.00
2018-12-12T07:04:15.505Z,1.90
2018-12-12T07:06:42.495Z,1.90
2018-12-12T07:09:10.005Z,1.90
2018-12-12T07:11:37.004Z,1.90
2018-12-12T07:14:04.584Z,1.80
2018-12-12T07:16:31.647Z,1.90
2018-12-12T07:18:58.666Z,1.80
2018-12-12T07:21:25.684Z,1.80
2018-12-12T07:23:52.665Z,1.80
2018-12-12T07:26:19.630Z,1.80
2018-12-12T07:28:46.745Z,1.80
2018-12-12T07:31:13.684Z,1.80
2018-12-12T07:33:41.106Z,1.80
2018-12-12T07:36:08.105Z,1.70
2018-12-12T07:38:35.064Z,1.70
2018-12-12T07:41:02.105Z,1.80
2018-12-12T07:43:29.050Z,1.80
2018-12-12T07:45:56.063Z,1.80
2018-12-12T07:48:23.045Z,1.80
2018-12-12T07:50:50.064Z,1.90
2018-12-12T07:53:17.058Z,1.90
2018-12-12T07:55:44.044Z,2.00
2018-12-12T07:58:11.025Z,2.00
2018-12-12T08:00:38.024Z,2.00
2018-12-12T08:03:06.571Z,2.10
2018-12-12T08:05:34.626Z,2.20
2018-12-12T08:08:01.970Z,2.20
2018-12-12T08:10:36.265Z,2.30
2018-12-12T08:13:03.284Z,2.40
2018-12-12T08:15:30.344Z,2.50
2018-12-12T08:17:57.385Z,2.50
2018-12-12T08:20:24.406Z,2.60
2018-12-12T08:22:51.544Z,2.60
2018-12-12T08:25:19.345Z,2.60
2018-12-12T08:27:53.245Z,2.60
2018-12-12T08:30:20.405Z,2.60
2018-12-12T08:32:47.567Z,2.60
2018-12-12T08:37:46.991Z,2.70
2018-12-12T08:40:15.151Z,2.80
2018-12-12T08:42:42.111Z,2.80
2018-12-12T08:45:09.172Z,3.00
2018-12-12T08:47:36.213Z,3.00
2018-12-12T08:50:05.817Z,3.10
2018-12-12T08:52:32.892Z,3.10
2018-12-12T08:54:59.881Z,3.20
2018-12-12T08:57:35.091Z,3.20
2018-12-12T09:00:03.412Z,3.20
2018-12-12T09:02:30.372Z,3.20
2018-12-12T09:04:57.413Z,3.20
2018-12-12T09:07:24.412Z,3.10
2018-12-12T09:09:51.412Z,3.20
2018-12-12T09:12:18.454Z,3.20
2018-12-12T09:14:45.413Z,3.20
2018-12-12T09:17:12.452Z,3.10
2018-12-12T09:19:39.424Z,3.10
2018-12-12T09:22:06.373Z,3.00
2018-12-12T09:24:33.412Z,3.10
2018-12-12T09:27:03.333Z,3.10
2018-12-12T09:29:30.494Z,3.20
2018-12-12T09:32:04.672Z,3.20
2018-12-12T09:34:31.732Z,3.20
2018-12-12T09:36:58.732Z,3.30
2018-12-12T09:39:25.755Z,3.40
2018-12-12T09:41:53.294Z,3.50
2018-12-12T09:44:20.352Z,3.50
2018-12-12T09:46:47.392Z,3.60
2018-12-12T09:49:14.311Z,3.60
2018-12-12T09:51:48.252Z,3.70
2018-12-12T09:54:29.211Z,3.70
2018-12-12T09:56:56.211Z,3.80
2018-12-12T09:59:23.233Z,3.70
2018-12-12T10:01:50.251Z,3.70
2018-12-12T10:04:17.291Z,3.80
2018-12-12T10:06:44.412Z,3.80
2018-12-12T10:09:11.791Z,3.90
2018-12-12T10:11:38.792Z,3.90
2018-12-12T10:14:05.791Z,3.90
2018-12-12T10:16:33.432Z,3.90
2018-12-12T10:19:07.432Z,4.00
2018-12-12T10:21:34.472Z,4.00
2018-12-12T10:24:01.532Z,4.00
2018-12-12T10:26:28.933Z,4.00
2018-12-12T10:28:57.172Z,4.10
2018-12-12T10:31:24.512Z,4.10
2018-12-12T10:33:51.591Z,4.30
2018-12-12T10:36:18.671Z,4.30
2018-12-12T10:38:45.632Z,4.40
2018-12-12T10:41:13.311Z,4.30
2018-12-12T10:43:40.353Z,4.30
2018-12-12T10:46:07.392Z,4.40
2018-12-12T10:48:34.372Z,4.50
2018-12-12T10:51:01.332Z,4.50
2018-12-12T10:53:28.431Z,4.60
2018-12-12T10:55:55.412Z,4.70
2018-12-12T10:58:29.413Z,4.80
2018-12-12T11:01:02.454Z,4.90
2018-12-12T11:03:32.513Z,4.90
2018-12-12T11:05:59.493Z,4.80
2018-12-12T11:08:26.513Z,4.80
2018-12-12T11:10:53.552Z,4.70
2018-12-12T11:13:20.553Z,4.50
2018-12-12T11:15:47.497Z,4.40
2018-12-12T11:18:14.473Z,4.30
2018-12-12T11:20:41.496Z,4.30
2018-12-12T11:23:08.497Z,4.30
2018-12-12T11:25:35.497Z,4.20
2018-12-12T11:28:02.516Z,4.10
2018-12-12T11:30:29.553Z,4.10
2018-12-12T11:32:56.493Z,4.10
2018-12-12T11:35:23.513Z,4.00
2018-12-12T11:37:50.534Z,3.90
2018-12-12T11:40:17.593Z,3.90
2018-12-12T11:42:44.533Z,3.80
2018-12-12T11:45:11.592Z,3.80
2018-12-12T11:47:38.953Z,3.70
2018-12-12T11:50:06.133Z,3.70
2018-12-12T11:52:33.041Z,3.70
2018-12-12T11:55:00.072Z,3.60
2018-12-12T11:57:27.392Z,3.60
2018-12-12T11:59:54.412Z,3.70
2018-12-12T12:02:21.414Z,3.60
2018-12-12T12:04:48.412Z,3.60
2018-12-12T12:07:15.401Z,3.60
2018-12-12T12:09:42.381Z,3.60
2018-12-12T12:12:09.413Z,3.60
2018-12-12T12:14:36.434Z,3.60
2018-12-12T12:17:03.453Z,3.60
2018-12-12T12:19:30.433Z,3.60
2018-12-12T12:21:57.415Z,3.60
2018-12-12T12:24:24.473Z,3.60
2018-12-12T12:26:51.492Z,3.60
2018-12-12T12:29:25.713Z,3.60
2018-12-12T12:31:52.992Z,3.50
2018-12-12T12:34:26.913Z,3.60
2018-12-12T12:36:53.933Z,3.60
2018-12-12T12:39:20.913Z,3.60
2018-12-12T12:41:54.752Z,3.60
2018-12-12T12:44:21.773Z,3.50
2018-12-12T12:46:48.773Z,3.60
2018-12-12T12:49:22.813Z,3.60
2018-12-12T12:51:49.815Z,3.60
2018-12-12T12:54:16.773Z,3.60
2018-12-12T12:56:43.794Z,3.60
2018-12-12T12:59:11.173Z,3.60
2018-12-12T13:01:38.202Z,3.60
2018-12-12T13:04:09.626Z,3.60
2018-12-12T13:06:34.213Z,3.60
2018-12-12T13:09:01.252Z,3.60
2018-12-12T13:11:28.273Z,3.60
2018-12-12T13:13:55.222Z,3.60
2018-12-12T13:16:22.173Z,3.50
2018-12-12T13:18:49.173Z,3.60
2018-12-12T13:21:23.254Z,3.60
2018-12-12T13:23:50.253Z,3.50
2018-12-12T13:26:17.213Z,3.50
2018-12-12T13:28:44.175Z,3.50
2018-12-12T13:31:11.295Z,3.50
2018-12-12T13:33:38.295Z,3.60
2018-12-12T13:36:05.336Z,3.60
2018-12-12T13:38:32.417Z,3.50
2018-12-12T13:40:59.356Z,3.50
2018-12-12T13:43:26.383Z,3.50
2018-12-12T13:45:53.377Z,3.40
2018-12-12T13:48:20.296Z,3.40
2018-12-12T13:50:47.298Z,3.40
2018-12-12T13:53:14.336Z,3.40
2018-12-12T13:55:41.296Z,3.30
2018-12-12T13:58:08.256Z,3.20
2018-12-12T14:00:39.111Z,3.20
2018-12-12T14:03:04.636Z,3.20
2018-12-12T14:05:33.276Z,3.20
2018-12-12T14:08:00.276Z,3.20
2018-12-12T14:10:27.196Z,3.20
2018-12-12T14:12:54.297Z,3.20
2018-12-12T14:15:21.303Z,3.20
2018-12-12T14:17:55.305Z,3.20
2018-12-12T14:20:22.243Z,3.20
2018-12-12T14:22:49.287Z,3.20
2018-12-12T14:25:16.303Z,3.20
2018-12-12T14:27:43.323Z,3.20
2018-12-12T14:30:10.253Z,3.20
2018-12-12T14:32:37.204Z,3.20
2018-12-12T14:35:04.943Z,3.10
2018-12-12T14:37:32.083Z,3.10
2018-12-12T14:39:59.023Z,3.10
2018-12-12T14:42:26.043Z,3.10
2018-12-12T14:44:53.023Z,3.10
2018-12-12T14:47:20.063Z,3.10
2018-12-12T14:49:53.958Z,3.00
2018-12-12T14:52:20.826Z,3.00
2018-12-12T14:54:48.690Z,2.90
2018-12-12T14:57:16.506Z,2.80
2018-12-12T14:59:43.724Z,2.80
2018-12-12T15:02:10.762Z,2.70
2018-12-12T15:04:44.693Z,2.70
2018-12-12T15:07:11.674Z,2.60
2018-12-12T15:09:39.010Z,2.60
2018-12-12T15:12:06.832Z,2.50
2018-12-12T15:14:33.826Z,2.50
2018-12-12T15:17:00.766Z,2.40
2018-12-12T15:19:34.826Z,2.30
2018-12-12T15:22:02.127Z,2.30
2018-12-12T15:24:36.043Z,2.20
2018-12-12T15:27:02.969Z,2.20
2018-12-12T15:29:29.949Z,2.10
2018-12-12T15:31:56.947Z,2.00
2018-12-12T15:34:23.946Z,2.00
2018-12-12T15:36:51.026Z,1.90
2018-12-12T15:39:17.846Z,1.90
2018-12-12T15:41:45.545Z,1.80
2018-12-12T15:44:12.571Z,1.80
2018-12-12T15:46:39.607Z,1.80
2018-12-12T15:49:06.737Z,1.80
2018-12-12T15:51:33.679Z,1.80
2018-12-12T15:54:00.637Z,1.80
2018-12-12T15:56:27.679Z,1.80
2018-12-12T15:58:54.737Z,1.80
2018-12-12T16:01:21.697Z,1.80
2018-12-12T16:03:48.680Z,1.80
2018-12-12T16:06:15.658Z,1.80
2018-12-12T16:08:42.637Z,1.80
2018-12-12T16:11:09.537Z,1.70
2018-12-12T16:13:36.606Z,1.60
2018-12-12T16:16:03.717Z,1.60
2018-12-12T16:18:30.760Z,1.50
2018-12-12T16:20:57.732Z,1.40
2018-12-12T16:23:24.798Z,1.30
2018-12-12T16:25:52.388Z,1.20
2018-12-12T16:28:19.387Z,1.10
2018-12-12T16:30:46.327Z,1.10
2018-12-12T16:33:13.368Z,1.00
2018-12-12T16:35:40.429Z,1.00
2018-12-12T16:38:07.367Z,0.90
2018-12-12T16:40:34.422Z,0.90
2018-12-12T16:43:01.403Z,0.90
2018-12-12T16:45:28.740Z,0.90
2018-12-12T16:47:55.701Z,0.90
2018-12-12T16:50:22.625Z,0.90
2018-12-12T16:52:49.663Z,0.90
2018-12-12T16:55:16.755Z,0.90
2018-12-12T16:57:43.934Z,0.90
2018-12-12T17:02:42.793Z,0.90
2018-12-12T17:05:09.798Z,0.90
2018-12-12T18:57:25.275Z,1.00
2018-12-12T18:59:52.311Z,1.00
2018-12-12T19:02:19.691Z,1.00
2018-12-12T19:04:46.732Z,1.00
2018-12-12T19:07:13.601Z,1.00
2018-12-12T19:09:40.581Z,1.00
2018-12-12T19:12:07.936Z,1.00
2018-12-12T19:14:36.977Z,1.00
2018-12-12T19:17:04.015Z,1.00
2018-12-12T19:19:30.996Z,1.00
2018-12-12T19:21:57.975Z,1.00
2018-12-12T19:24:25.286Z,1.00
2018-12-12T19:26:52.275Z,1.00
2018-12-12T19:29:19.195Z,1.00
2018-12-12T19:31:46.234Z,1.00
2018-12-12T19:34:13.196Z,1.00
2018-12-12T19:36:40.195Z,1.00
2018-12-12T19:39:07.764Z,1.00
2018-12-12T19:41:34.975Z,1.00
2018-12-12T19:44:02.078Z,1.00
2018-12-12T19:46:29.235Z,1.00
2018-12-12T19:48:56.754Z,1.00
2018-12-12T19:51:23.875Z,1.00
2018-12-12T19:53:51.037Z,1.00
2018-12-12T19:56:25.024Z,1.00
2018-12-12T19:58:52.543Z,1.00
2018-12-12T20:01:19.896Z,1.00
2018-12-12T20:03:47.943Z,1.00
2018-12-12T20:06:16.122Z,1.00
2018-12-12T20:08:43.304Z,0.90
2018-12-12T20:11:10.502Z,0.90
2018-12-12T20:13:38.862Z,0.90
2018-12-12T20:16:12.941Z,0.90
2018-12-12T20:18:40.104Z,0.90
2018-12-12T20:21:07.223Z,0.90
2018-12-12T20:23:34.263Z,0.90
2018-12-12T20:26:01.351Z,0.90
2018-12-12T20:28:28.362Z,0.90
2018-12-12T20:30:55.322Z,0.90
2018-12-12T20:33:22.375Z,0.90
2018-12-12T20:35:49.396Z,0.90
2018-12-12T20:38:16.450Z,0.90
2018-12-12T20:40:43.469Z,0.90
2018-12-12T20:43:10.529Z,0.90
2018-12-12T20:45:37.930Z,0.90
2018-12-12T20:48:04.988Z,0.90
2018-12-12T20:50:38.970Z,0.90
2018-12-12T20:53:05.950Z,0.90
2018-12-12T20:55:32.931Z,0.90
2018-12-12T20:57:59.988Z,0.80
2018-12-12T21:00:27.249Z,0.80
2018-12-12T21:02:54.291Z,0.80
2018-12-12T21:05:21.429Z,0.80
2018-12-12T21:07:48.609Z,0.80
2018-12-12T21:10:15.830Z,0.80
2018-12-12T21:12:42.893Z,0.80
2018-12-12T21:15:09.970Z,0.80
2018-12-12T21:17:44.009Z,0.80
2018-12-12T21:20:11.088Z,0.80
2018-12-12T21:22:38.207Z,0.80
2018-12-12T21:25:05.748Z,0.80
2018-12-12T21:27:32.790Z,0.80
2018-12-12T21:29:59.908Z,0.80
2018-12-12T21:32:27.368Z,0.80
2018-12-12T21:34:54.309Z,0.80
2018-12-12T21:37:21.307Z,0.80
2018-12-12T21:39:48.351Z,0.80
2018-12-12T21:42:15.370Z,0.80
2018-12-12T21:44:42.430Z,0.90
2018-12-12T21:47:09.389Z,0.90
2018-12-12T21:49:36.347Z,0.90
2018-12-12T21:52:03.574Z,0.90
2018-12-12T21:54:30.637Z,0.90
2018-12-12T21:56:57.635Z,0.90
2018-12-12T21:59:24.693Z,0.90
2018-12-12T22:01:51.974Z,0.90
2018-12-12T22:04:18.934Z,0.90
2018-12-12T22:06:45.975Z,0.80
2018-12-12T22:09:13.014Z,0.80
2018-12-12T22:11:40.455Z,0.80
2018-12-12T22:14:07.414Z,0.80
2018-12-12T22:16:34.374Z,0.80
2018-12-12T22:19:01.373Z,0.80
2018-12-12T22:21:28.373Z,0.80
2018-12-12T22:23:55.353Z,0.80
2018-12-12T22:26:22.313Z,0.80
2018-12-12T22:28:49.353Z,0.80
2018-12-12T22:31:16.413Z,0.90
2018-12-12T22:33:43.376Z,0.90
2018-12-12T22:36:14.156Z,0.90
2018-12-12T22:38:39.654Z,0.90
2018-12-12T22:41:06.697Z,0.90
2018-12-12T22:43:33.653Z,0.90
2018-12-12T22:46:00.771Z,0.90
2018-12-12T22:48:27.734Z,0.90
2018-12-12T22:50:55.193Z,0.90
2018-12-12T22:53:22.214Z,0.90
2018-12-12T22:55:49.253Z,0.90
2018-12-12T22:58:16.233Z,0.90
2018-12-12T23:00:46.694Z,0.90
2018-12-12T23:03:13.653Z,0.90
2018-12-12T23:05:40.712Z,0.80
2018-12-12T23:08:07.733Z,0.80
2018-12-12T23:10:35.114Z,0.80
2018-12-12T23:13:02.155Z,0.80
2018-12-12T23:15:29.155Z,0.80
2018-12-12T23:17:56.255Z,0.80
2018-12-12T23:20:23.276Z,0.80
2018-12-12T23:22:50.334Z,0.80
2018-12-12T23:25:17.303Z,0.80
2018-12-12T23:27:44.335Z,0.80
2018-12-12T23:30:11.416Z,0.80
2018-12-12T23:32:38.455Z,0.80
2018-12-12T23:35:05.633Z,0.90
2018-12-12T23:37:32.636Z,0.90
2018-12-12T23:40:06.516Z,0.90
2018-12-12T23:42:33.593Z,0.90
2018-12-12T23:45:00.615Z,0.90
2018-12-12T23:47:27.655Z,1.00
2018-12-12T23:49:54.634Z,1.00
2018-12-12T23:52:21.715Z,1.00
2018-12-12T23:54:48.674Z,1.00
2018-12-12T23:57:15.698Z,1.00
2018-12-12T23:59:42.675Z,1.10
